sensor_id;sensor_type;location;lat;lon;timestamp;temperature;humidity
5508;DHT22;2776;51.046;6.772;2023-04-24T00:00:10;11.00;99.90
5508;DHT22;2776;51.046;6.772;2023-04-24T00:02:37;11.00;99.90
5508;DHT22;2776;51.046;6.772;2023-04-24T00:05:07;11.00;99.90
5508;DHT22;2776;51.046;6.772;2023-04-24T00:07:34;11.10;99.90
5508;DHT22;2776;51.046;6.772;2023-04-24T00:10:01;11.10;99.90
5508;DHT22;2776;51.046;6.772;2023-04-24T00:12:28;11.10;99.90
5508;DHT22;2776;51.046;6.772;2023-04-24T00:14:55;11.20;99.90
5508;DHT22;2776;51.046;6.772;2023-04-24T00:17:21;11.20;99.90
5508;DHT22;2776;51.046;6.772;2023-04-24T00:19:49;11.20;99.90
5508;DHT22;2776;51.046;6.772;2023-04-24T00:22:18;11.20;99.90
5508;DHT22;2776;51.046;6.772;2023-04-24T00:24:46;11.20;99.90
5508;DHT22;2776;51.046;6.772;2023-04-24T00:27:12;11.30;99.90
5508;DHT22;2776;51.046;6.772;2023-04-24T00:29:39;11.30;99.90
5508;DHT22;2776;51.046;6.772;2023-04-24T00:32:06;11.30;99.90
5508;DHT22;2776;51.046;6.772;2023-04-24T00:34:33;11.30;99.90
5508;DHT22;2776;51.046;6.772;2023-04-24T00:37:00;11.40;99.90
5508;DHT22;2776;51.046;6.772;2023-04-24T00:39:28;11.40;99.90
5508;DHT22;2776;51.046;6.772;2023-04-24T00:41:56;11.40;99.90
5508;DHT22;2776;51.046;6.772;2023-04-24T00:44:23;11.30;99.90
5508;DHT22;2776;51.046;6.772;2023-04-24T00:46:50;11.30;99.90
5508;DHT22;2776;51.046;6.772;2023-04-24T00:49:20;11.30;99.90
5508;DHT22;2776;51.046;6.772;2023-04-24T00:51:47;11.30;99.90
5508;DHT22;2776;51.046;6.772;2023-04-24T00:54:15;11.30;99.90
5508;DHT22;2776;51.046;6.772;2023-04-24T00:56:44;11.30;99.90
5508;DHT22;2776;51.046;6.772;2023-04-24T00:59:11;11.30;99.90
5508;DHT22;2776;51.046;6.772;2023-04-24T01:01:38;11.30;99.90
5508;DHT22;2776;51.046;6.772;2023-04-24T01:04:07;11.30;99.90
5508;DHT22;2776;51.046;6.772;2023-04-24T01:06:36;11.20;99.90
5508;DHT22;2776;51.046;6.772;2023-04-24T01:09:05;11.20;99.90
5508;DHT22;2776;51.046;6.772;2023-04-24T01:11:33;11.10;99.90
5508;DHT22;2776;51.046;6.772;2023-04-24T01:14:01;11.00;99.90
5508;DHT22;2776;51.046;6.772;2023-04-24T01:16:28;11.00;99.90
5508;DHT22;2776;51.046;6.772;2023-04-24T01:18:55;10.90;99.90
5508;DHT22;2776;51.046;6.772;2023-04-24T01:21:23;10.90;99.90
5508;DHT22;2776;51.046;6.772;2023-04-24T01:23:55;10.80;99.90
5508;DHT22;2776;51.046;6.772;2023-04-24T01:26:22;10.80;99.90
5508;DHT22;2776;51.046;6.772;2023-04-24T01:28:51;10.60;99.90
5508;DHT22;2776;51.046;6.772;2023-04-24T01:31:18;10.60;99.90
5508;DHT22;2776;51.046;6.772;2023-04-24T01:33:45;10.40;99.90
5508;DHT22;2776;51.046;6.772;2023-04-24T01:36:12;10.30;99.90
5508;DHT22;2776;51.046;6.772;2023-04-24T01:38:40;10.20;99.90
5508;DHT22;2776;51.046;6.772;2023-04-24T01:41:08;10.00;99.90
5508;DHT22;2776;51.046;6.772;2023-04-24T01:43:35;9.90;99.90
5508;DHT22;2776;51.046;6.772;2023-04-24T01:46:01;9.70;99.90
5508;DHT22;2776;51.046;6.772;2023-04-24T01:48:28;9.60;99.90
5508;DHT22;2776;51.046;6.772;2023-04-24T01:50:56;9.50;99.90
5508;DHT22;2776;51.046;6.772;2023-04-24T01:53:23;9.40;99.90
5508;DHT22;2776;51.046;6.772;2023-04-24T01:55:50;9.40;99.90
5508;DHT22;2776;51.046;6.772;2023-04-24T01:58:18;9.30;99.90
5508;DHT22;2776;51.046;6.772;2023-04-24T02:00:45;9.20;99.90
5508;DHT22;2776;51.046;6.772;2023-04-24T02:03:11;9.20;99.90
5508;DHT22;2776;51.046;6.772;2023-04-24T02:05:38;9.20;99.90
5508;DHT22;2776;51.046;6.772;2023-04-24T02:08:05;9.10;99.90
5508;DHT22;2776;51.046;6.772;2023-04-24T02:10:31;9.10;99.90
5508;DHT22;2776;51.046;6.772;2023-04-24T02:12:58;9.10;99.90
5508;DHT22;2776;51.046;6.772;2023-04-24T02:15:27;9.20;99.90
5508;DHT22;2776;51.046;6.772;2023-04-24T02:17:54;9.10;99.90
5508;DHT22;2776;51.046;6.772;2023-04-24T02:20:20;9.20;99.90
5508;DHT22;2776;51.046;6.772;2023-04-24T02:22:47;9.20;99.90
5508;DHT22;2776;51.046;6.772;2023-04-24T02:25:14;9.30;99.90
5508;DHT22;2776;51.046;6.772;2023-04-24T02:27:41;9.30;99.90
5508;DHT22;2776;51.046;6.772;2023-04-24T02:30:09;9.30;99.90
5508;DHT22;2776;51.046;6.772;2023-04-24T02:32:37;9.30;99.90
5508;DHT22;2776;51.046;6.772;2023-04-24T02:35:05;9.40;99.90
5508;DHT22;2776;51.046;6.772;2023-04-24T02:37:32;9.40;99.90
5508;DHT22;2776;51.046;6.772;2023-04-24T02:39:59;9.50;99.90
5508;DHT22;2776;51.046;6.772;2023-04-24T02:42:26;9.60;99.90
5508;DHT22;2776;51.046;6.772;2023-04-24T02:44:52;9.60;99.90
5508;DHT22;2776;51.046;6.772;2023-04-24T02:47:19;9.60;99.90
5508;DHT22;2776;51.046;6.772;2023-04-24T02:49:47;9.60;99.90
5508;DHT22;2776;51.046;6.772;2023-04-24T02:52:14;9.70;99.90
5508;DHT22;2776;51.046;6.772;2023-04-24T02:54:42;9.70;99.90
5508;DHT22;2776;51.046;6.772;2023-04-24T02:57:08;9.80;99.90
5508;DHT22;2776;51.046;6.772;2023-04-24T02:59:35;9.80;99.90
5508;DHT22;2776;51.046;6.772;2023-04-24T03:02:02;9.80;99.90
5508;DHT22;2776;51.046;6.772;2023-04-24T03:04:29;9.80;99.90
5508;DHT22;2776;51.046;6.772;2023-04-24T03:06:57;9.80;99.90
5508;DHT22;2776;51.046;6.772;2023-04-24T03:09:24;9.80;99.90
5508;DHT22;2776;51.046;6.772;2023-04-24T03:11:51;9.80;99.90
5508;DHT22;2776;51.046;6.772;2023-04-24T03:14:17;9.80;99.90
5508;DHT22;2776;51.046;6.772;2023-04-24T03:16:44;9.70;99.90
5508;DHT22;2776;51.046;6.772;2023-04-24T03:19:11;9.70;99.90
5508;DHT22;2776;51.046;6.772;2023-04-24T03:21:38;9.70;99.90
5508;DHT22;2776;51.046;6.772;2023-04-24T03:24:07;9.60;99.90
5508;DHT22;2776;51.046;6.772;2023-04-24T03:26:34;9.60;99.90
5508;DHT22;2776;51.046;6.772;2023-04-24T03:29:01;9.60;99.90
5508;DHT22;2776;51.046;6.772;2023-04-24T03:31:28;9.60;99.90
5508;DHT22;2776;51.046;6.772;2023-04-24T03:33:55;9.60;99.90
5508;DHT22;2776;51.046;6.772;2023-04-24T03:36:21;9.50;99.90
5508;DHT22;2776;51.046;6.772;2023-04-24T03:38:48;9.50;99.90
5508;DHT22;2776;51.046;6.772;2023-04-24T03:41:16;9.40;99.90
5508;DHT22;2776;51.046;6.772;2023-04-24T03:43:44;9.50;99.90
5508;DHT22;2776;51.046;6.772;2023-04-24T03:46:11;9.50;99.90
5508;DHT22;2776;51.046;6.772;2023-04-24T03:48:37;9.50;99.90
5508;DHT22;2776;51.046;6.772;2023-04-24T03:51:04;9.60;99.90
5508;DHT22;2776;51.046;6.772;2023-04-24T03:53:31;9.60;99.90
5508;DHT22;2776;51.046;6.772;2023-04-24T03:55:58;9.60;99.90
5508;DHT22;2776;51.046;6.772;2023-04-24T03:58:26;9.60;99.90
5508;DHT22;2776;51.046;6.772;2023-04-24T04:00:52;9.60;99.90
5508;DHT22;2776;51.046;6.772;2023-04-24T04:03:19;9.60;99.90
5508;DHT22;2776;51.046;6.772;2023-04-24T04:05:46;9.50;99.90
5508;DHT22;2776;51.046;6.772;2023-04-24T04:08:12;9.50;99.90
5508;DHT22;2776;51.046;6.772;2023-04-24T04:10:40;9.50;99.90
5508;DHT22;2776;51.046;6.772;2023-04-24T04:13:06;9.50;99.90
5508;DHT22;2776;51.046;6.772;2023-04-24T04:15:34;9.50;99.90
5508;DHT22;2776;51.046;6.772;2023-04-24T04:18:02;9.60;99.90
5508;DHT22;2776;51.046;6.772;2023-04-24T04:20:28;9.50;99.90
5508;DHT22;2776;51.046;6.772;2023-04-24T04:22:55;9.50;99.90
5508;DHT22;2776;51.046;6.772;2023-04-24T04:25:22;9.60;99.90
5508;DHT22;2776;51.046;6.772;2023-04-24T04:27:49;9.50;99.90
5508;DHT22;2776;51.046;6.772;2023-04-24T04:30:16;9.50;99.90
5508;DHT22;2776;51.046;6.772;2023-04-24T04:32:44;9.60;99.90
5508;DHT22;2776;51.046;6.772;2023-04-24T04:35:11;9.60;99.90
5508;DHT22;2776;51.046;6.772;2023-04-24T04:37:38;9.60;99.90
5508;DHT22;2776;51.046;6.772;2023-04-24T04:40:06;9.60;99.90
5508;DHT22;2776;51.046;6.772;2023-04-24T04:42:35;9.60;99.90
5508;DHT22;2776;51.046;6.772;2023-04-24T04:45:06;9.60;99.90
5508;DHT22;2776;51.046;6.772;2023-04-24T04:47:34;9.50;99.90
5508;DHT22;2776;51.046;6.772;2023-04-24T04:50:02;9.60;99.90
5508;DHT22;2776;51.046;6.772;2023-04-24T04:52:30;9.60;99.90
5508;DHT22;2776;51.046;6.772;2023-04-24T04:54:57;9.60;99.90
5508;DHT22;2776;51.046;6.772;2023-04-24T04:57:24;9.60;99.90
5508;DHT22;2776;51.046;6.772;2023-04-24T04:59:51;9.60;99.90
5508;DHT22;2776;51.046;6.772;2023-04-24T05:02:18;9.60;99.90
5508;DHT22;2776;51.046;6.772;2023-04-24T05:04:44;9.60;99.90
5508;DHT22;2776;51.046;6.772;2023-04-24T05:07:13;9.60;99.90
5508;DHT22;2776;51.046;6.772;2023-04-24T05:09:40;9.70;99.90
5508;DHT22;2776;51.046;6.772;2023-04-24T05:12:06;9.70;99.90
5508;DHT22;2776;51.046;6.772;2023-04-24T05:14:33;9.60;99.90
5508;DHT22;2776;51.046;6.772;2023-04-24T05:17:00;9.60;99.90
5508;DHT22;2776;51.046;6.772;2023-04-24T05:19:28;9.70;99.90
5508;DHT22;2776;51.046;6.772;2023-04-24T05:21:54;9.70;99.90
5508;DHT22;2776;51.046;6.772;2023-04-24T05:24:22;9.60;99.90
5508;DHT22;2776;51.046;6.772;2023-04-24T05:26:49;9.60;99.90
5508;DHT22;2776;51.046;6.772;2023-04-24T05:29:16;9.60;99.90
5508;DHT22;2776;51.046;6.772;2023-04-24T05:31:44;9.60;99.90
5508;DHT22;2776;51.046;6.772;2023-04-24T05:34:11;9.60;99.90
5508;DHT22;2776;51.046;6.772;2023-04-24T05:36:38;9.50;99.90
5508;DHT22;2776;51.046;6.772;2023-04-24T05:39:04;9.50;99.90
5508;DHT22;2776;51.046;6.772;2023-04-24T05:41:33;9.50;99.90
5508;DHT22;2776;51.046;6.772;2023-04-24T05:44:00;9.50;99.90
5508;DHT22;2776;51.046;6.772;2023-04-24T05:46:26;9.40;99.90
5508;DHT22;2776;51.046;6.772;2023-04-24T05:48:53;9.40;99.90
5508;DHT22;2776;51.046;6.772;2023-04-24T05:51:20;9.40;99.90
5508;DHT22;2776;51.046;6.772;2023-04-24T05:53:46;9.30;99.90
5508;DHT22;2776;51.046;6.772;2023-04-24T05:56:13;9.30;99.90
5508;DHT22;2776;51.046;6.772;2023-04-24T05:58:42;9.30;99.90
5508;DHT22;2776;51.046;6.772;2023-04-24T06:01:09;9.30;99.90
5508;DHT22;2776;51.046;6.772;2023-04-24T06:03:36;9.20;99.90
5508;DHT22;2776;51.046;6.772;2023-04-24T06:06:03;9.30;99.90
5508;DHT22;2776;51.046;6.772;2023-04-24T06:08:30;9.30;99.90
5508;DHT22;2776;51.046;6.772;2023-04-24T06:10:57;9.30;99.90
5508;DHT22;2776;51.046;6.772;2023-04-24T06:13:24;9.30;99.90
5508;DHT22;2776;51.046;6.772;2023-04-24T06:15:52;9.30;99.90
5508;DHT22;2776;51.046;6.772;2023-04-24T06:18:19;9.40;99.90
5508;DHT22;2776;51.046;6.772;2023-04-24T06:20:46;9.30;99.90
5508;DHT22;2776;51.046;6.772;2023-04-24T06:23:13;9.30;99.90
5508;DHT22;2776;51.046;6.772;2023-04-24T06:25:40;9.30;99.90
5508;DHT22;2776;51.046;6.772;2023-04-24T06:28:07;9.20;99.90
5508;DHT22;2776;51.046;6.772;2023-04-24T06:30:33;9.20;99.90
5508;DHT22;2776;51.046;6.772;2023-04-24T06:33:02;9.10;99.90
5508;DHT22;2776;51.046;6.772;2023-04-24T06:35:28;9.10;99.90
5508;DHT22;2776;51.046;6.772;2023-04-24T06:37:55;9.00;99.90
5508;DHT22;2776;51.046;6.772;2023-04-24T06:40:22;9.00;99.90
5508;DHT22;2776;51.046;6.772;2023-04-24T06:42:49;9.00;99.90
5508;DHT22;2776;51.046;6.772;2023-04-24T06:45:16;8.90;99.90
5508;DHT22;2776;51.046;6.772;2023-04-24T06:47:43;8.90;99.90
5508;DHT22;2776;51.046;6.772;2023-04-24T06:50:11;8.90;99.90
5508;DHT22;2776;51.046;6.772;2023-04-24T06:52:38;8.90;99.90
5508;DHT22;2776;51.046;6.772;2023-04-24T06:55:06;8.90;99.90
5508;DHT22;2776;51.046;6.772;2023-04-24T06:57:33;8.90;99.90
5508;DHT22;2776;51.046;6.772;2023-04-24T07:00:00;8.90;99.90
5508;DHT22;2776;51.046;6.772;2023-04-24T07:02:26;8.90;99.90
5508;DHT22;2776;51.046;6.772;2023-04-24T07:04:53;8.90;99.90
5508;DHT22;2776;51.046;6.772;2023-04-24T07:07:21;8.90;99.90
5508;DHT22;2776;51.046;6.772;2023-04-24T07:09:49;8.90;99.90
5508;DHT22;2776;51.046;6.772;2023-04-24T07:12:16;8.80;99.90
5508;DHT22;2776;51.046;6.772;2023-04-24T07:14:45;8.80;99.90
5508;DHT22;2776;51.046;6.772;2023-04-24T07:17:12;8.90;99.90
5508;DHT22;2776;51.046;6.772;2023-04-24T07:19:40;8.80;99.90
5508;DHT22;2776;51.046;6.772;2023-04-24T07:22:07;8.80;99.90
5508;DHT22;2776;51.046;6.772;2023-04-24T07:24:35;8.90;99.90
5508;DHT22;2776;51.046;6.772;2023-04-24T07:27:01;8.90;99.90
5508;DHT22;2776;51.046;6.772;2023-04-24T07:29:28;8.80;99.90
5508;DHT22;2776;51.046;6.772;2023-04-24T07:31:55;8.80;99.90
5508;DHT22;2776;51.046;6.772;2023-04-24T07:34:22;8.70;99.90
5508;DHT22;2776;51.046;6.772;2023-04-24T07:36:49;8.70;99.90
5508;DHT22;2776;51.046;6.772;2023-04-24T07:39:16;8.60;99.90
5508;DHT22;2776;51.046;6.772;2023-04-24T07:41:44;8.60;99.90
5508;DHT22;2776;51.046;6.772;2023-04-24T07:44:11;8.50;99.90
5508;DHT22;2776;51.046;6.772;2023-04-24T07:46:38;8.50;99.90
5508;DHT22;2776;51.046;6.772;2023-04-24T07:49:04;8.40;99.90
5508;DHT22;2776;51.046;6.772;2023-04-24T07:51:31;8.40;99.90
5508;DHT22;2776;51.046;6.772;2023-04-24T07:54:03;8.30;99.90
5508;DHT22;2776;51.046;6.772;2023-04-24T07:56:30;8.30;99.90
5508;DHT22;2776;51.046;6.772;2023-04-24T07:58:58;8.30;99.90
5508;DHT22;2776;51.046;6.772;2023-04-24T08:01:25;8.20;99.90
5508;DHT22;2776;51.046;6.772;2023-04-24T08:03:52;8.10;99.90
5508;DHT22;2776;51.046;6.772;2023-04-24T08:06:19;8.10;99.90
5508;DHT22;2776;51.046;6.772;2023-04-24T08:08:45;8.10;99.90
5508;DHT22;2776;51.046;6.772;2023-04-24T08:11:12;8.10;99.90
5508;DHT22;2776;51.046;6.772;2023-04-24T08:13:39;8.00;99.90
5508;DHT22;2776;51.046;6.772;2023-04-24T08:16:07;8.00;99.90
5508;DHT22;2776;51.046;6.772;2023-04-24T08:18:34;8.00;99.90
5508;DHT22;2776;51.046;6.772;2023-04-24T08:21:01;8.00;99.90
5508;DHT22;2776;51.046;6.772;2023-04-24T08:23:28;7.90;99.90
5508;DHT22;2776;51.046;6.772;2023-04-24T08:25:55;7.90;99.90
5508;DHT22;2776;51.046;6.772;2023-04-24T08:28:22;7.90;99.90
5508;DHT22;2776;51.046;6.772;2023-04-24T08:30:49;7.90;99.90
5508;DHT22;2776;51.046;6.772;2023-04-24T08:33:22;7.90;99.90
5508;DHT22;2776;51.046;6.772;2023-04-24T08:35:49;7.80;99.90
5508;DHT22;2776;51.046;6.772;2023-04-24T08:38:15;7.90;99.90
5508;DHT22;2776;51.046;6.772;2023-04-24T08:40:42;7.90;99.90
5508;DHT22;2776;51.046;6.772;2023-04-24T08:43:12;7.90;99.90
5508;DHT22;2776;51.046;6.772;2023-04-24T08:45:39;8.00;99.90
5508;DHT22;2776;51.046;6.772;2023-04-24T08:48:06;8.00;99.90
5508;DHT22;2776;51.046;6.772;2023-04-24T08:50:35;8.00;99.90
5508;DHT22;2776;51.046;6.772;2023-04-24T08:53:02;8.00;99.90
5508;DHT22;2776;51.046;6.772;2023-04-24T08:55:30;8.10;99.90
5508;DHT22;2776;51.046;6.772;2023-04-24T08:57:58;8.00;99.90
5508;DHT22;2776;51.046;6.772;2023-04-24T09:00:26;8.00;99.90
5508;DHT22;2776;51.046;6.772;2023-04-24T09:02:53;8.10;99.90
5508;DHT22;2776;51.046;6.772;2023-04-24T09:05:21;8.00;99.90
5508;DHT22;2776;51.046;6.772;2023-04-24T09:07:54;8.10;99.90
5508;DHT22;2776;51.046;6.772;2023-04-24T09:10:22;8.10;99.90
5508;DHT22;2776;51.046;6.772;2023-04-24T09:12:50;8.20;99.90
5508;DHT22;2776;51.046;6.772;2023-04-24T09:15:20;8.30;99.90
5508;DHT22;2776;51.046;6.772;2023-04-24T09:17:47;8.30;99.90
5508;DHT22;2776;51.046;6.772;2023-04-24T09:20:14;8.30;99.90
5508;DHT22;2776;51.046;6.772;2023-04-24T09:22:42;8.30;99.90
5508;DHT22;2776;51.046;6.772;2023-04-24T09:25:10;8.30;99.90
5508;DHT22;2776;51.046;6.772;2023-04-24T09:27:41;8.40;99.90
5508;DHT22;2776;51.046;6.772;2023-04-24T09:30:09;8.40;99.90
5508;DHT22;2776;51.046;6.772;2023-04-24T09:32:36;8.40;99.90
5508;DHT22;2776;51.046;6.772;2023-04-24T09:35:08;8.40;99.90
5508;DHT22;2776;51.046;6.772;2023-04-24T09:37:36;8.50;99.90
5508;DHT22;2776;51.046;6.772;2023-04-24T09:40:15;8.70;99.90
5508;DHT22;2776;51.046;6.772;2023-04-24T09:42:45;8.90;99.90
5508;DHT22;2776;51.046;6.772;2023-04-24T09:45:12;9.00;99.90
5508;DHT22;2776;51.046;6.772;2023-04-24T09:47:40;9.10;99.90
5508;DHT22;2776;51.046;6.772;2023-04-24T09:50:11;9.20;99.90
5508;DHT22;2776;51.046;6.772;2023-04-24T09:52:41;9.30;99.90
5508;DHT22;2776;51.046;6.772;2023-04-24T09:55:20;9.40;99.90
5508;DHT22;2776;51.046;6.772;2023-04-24T09:57:48;9.40;99.90
5508;DHT22;2776;51.046;6.772;2023-04-24T10:00:19;9.70;99.90
5508;DHT22;2776;51.046;6.772;2023-04-24T10:02:50;9.80;99.90
5508;DHT22;2776;51.046;6.772;2023-04-24T10:05:17;9.90;99.90
5508;DHT22;2776;51.046;6.772;2023-04-24T10:07:44;9.90;99.90
5508;DHT22;2776;51.046;6.772;2023-04-24T10:10:11;9.90;99.90
5508;DHT22;2776;51.046;6.772;2023-04-24T10:12:40;10.20;99.90
5508;DHT22;2776;51.046;6.772;2023-04-24T10:15:09;10.30;99.90
5508;DHT22;2776;51.046;6.772;2023-04-24T10:17:37;10.40;99.90
5508;DHT22;2776;51.046;6.772;2023-04-24T10:20:06;10.40;99.90
5508;DHT22;2776;51.046;6.772;2023-04-24T10:22:34;10.50;99.90
5508;DHT22;2776;51.046;6.772;2023-04-24T10:25:04;10.60;99.90
5508;DHT22;2776;51.046;6.772;2023-04-24T10:27:32;10.70;99.90
5508;DHT22;2776;51.046;6.772;2023-04-24T10:30:01;11.00;99.90
5508;DHT22;2776;51.046;6.772;2023-04-24T10:32:28;11.00;99.90
5508;DHT22;2776;51.046;6.772;2023-04-24T10:34:55;10.80;99.90
5508;DHT22;2776;51.046;6.772;2023-04-24T10:37:23;10.70;99.90
5508;DHT22;2776;51.046;6.772;2023-04-24T10:39:50;10.60;99.90
5508;DHT22;2776;51.046;6.772;2023-04-24T10:42:19;10.60;99.90
5508;DHT22;2776;51.046;6.772;2023-04-24T10:44:47;10.30;99.90
5508;DHT22;2776;51.046;6.772;2023-04-24T10:47:15;10.10;99.90
5508;DHT22;2776;51.046;6.772;2023-04-24T10:49:42;10.30;99.90
5508;DHT22;2776;51.046;6.772;2023-04-24T10:52:09;10.40;99.90
5508;DHT22;2776;51.046;6.772;2023-04-24T10:54:41;10.40;99.90
5508;DHT22;2776;51.046;6.772;2023-04-24T10:57:27;10.40;99.90
5508;DHT22;2776;51.046;6.772;2023-04-24T11:00:16;10.20;99.90
5508;DHT22;2776;51.046;6.772;2023-04-24T11:02:46;10.10;99.90
5508;DHT22;2776;51.046;6.772;2023-04-24T11:05:16;10.00;99.90
5508;DHT22;2776;51.046;6.772;2023-04-24T11:08:11;10.10;99.90
5508;DHT22;2776;51.046;6.772;2023-04-24T11:10:39;10.10;99.90
5508;DHT22;2776;51.046;6.772;2023-04-24T11:13:06;10.10;99.90
5508;DHT22;2776;51.046;6.772;2023-04-24T11:15:34;10.40;99.90
5508;DHT22;2776;51.046;6.772;2023-04-24T11:18:02;10.70;99.90
5508;DHT22;2776;51.046;6.772;2023-04-24T11:20:29;11.20;99.90
5508;DHT22;2776;51.046;6.772;2023-04-24T11:23:03;11.70;99.90
5508;DHT22;2776;51.046;6.772;2023-04-24T11:25:31;12.20;99.90
5508;DHT22;2776;51.046;6.772;2023-04-24T11:28:03;12.30;99.90
5508;DHT22;2776;51.046;6.772;2023-04-24T11:30:31;12.40;99.90
5508;DHT22;2776;51.046;6.772;2023-04-24T11:33:04;12.40;99.90
5508;DHT22;2776;51.046;6.772;2023-04-24T11:35:35;12.50;99.90
5508;DHT22;2776;51.046;6.772;2023-04-24T11:38:03;12.50;99.90
5508;DHT22;2776;51.046;6.772;2023-04-24T11:40:30;12.40;99.90
5508;DHT22;2776;51.046;6.772;2023-04-24T11:43:00;12.40;99.90
5508;DHT22;2776;51.046;6.772;2023-04-24T11:45:28;12.50;99.90
5508;DHT22;2776;51.046;6.772;2023-04-24T11:47:55;12.30;99.90
5508;DHT22;2776;51.046;6.772;2023-04-24T11:50:25;12.40;99.90
5508;DHT22;2776;51.046;6.772;2023-04-24T11:52:53;12.40;99.90
5508;DHT22;2776;51.046;6.772;2023-04-24T11:55:25;12.30;99.90
5508;DHT22;2776;51.046;6.772;2023-04-24T11:57:54;12.20;99.90
5508;DHT22;2776;51.046;6.772;2023-04-24T12:00:23;12.10;99.90
5508;DHT22;2776;51.046;6.772;2023-04-24T12:02:51;11.90;99.90
5508;DHT22;2776;51.046;6.772;2023-04-24T12:05:19;11.80;99.90
5508;DHT22;2776;51.046;6.772;2023-04-24T12:07:48;11.70;99.90
5508;DHT22;2776;51.046;6.772;2023-04-24T12:10:19;11.50;99.90
5508;DHT22;2776;51.046;6.772;2023-04-24T12:12:46;11.40;99.90
5508;DHT22;2776;51.046;6.772;2023-04-24T12:15:16;11.20;99.90
5508;DHT22;2776;51.046;6.772;2023-04-24T12:17:44;11.10;99.90
5508;DHT22;2776;51.046;6.772;2023-04-24T12:20:12;11.00;99.90
5508;DHT22;2776;51.046;6.772;2023-04-24T12:22:46;11.00;99.90
5508;DHT22;2776;51.046;6.772;2023-04-24T12:25:15;11.10;99.90
5508;DHT22;2776;51.046;6.772;2023-04-24T12:27:43;11.30;99.90
5508;DHT22;2776;51.046;6.772;2023-04-24T12:30:12;11.80;99.90
5508;DHT22;2776;51.046;6.772;2023-04-24T12:32:43;12.20;99.90
5508;DHT22;2776;51.046;6.772;2023-04-24T12:35:10;12.60;99.90
5508;DHT22;2776;51.046;6.772;2023-04-24T12:37:37;12.80;99.90
5508;DHT22;2776;51.046;6.772;2023-04-24T12:40:06;13.00;99.90
5508;DHT22;2776;51.046;6.772;2023-04-24T12:42:41;13.00;99.90
5508;DHT22;2776;51.046;6.772;2023-04-24T12:45:08;12.90;99.90
5508;DHT22;2776;51.046;6.772;2023-04-24T12:47:38;13.10;99.90
5508;DHT22;2776;51.046;6.772;2023-04-24T12:50:06;13.20;99.90
5508;DHT22;2776;51.046;6.772;2023-04-24T12:52:33;13.40;99.90
5508;DHT22;2776;51.046;6.772;2023-04-24T12:55:01;13.50;99.90
5508;DHT22;2776;51.046;6.772;2023-04-24T12:57:29;13.60;99.90
5508;DHT22;2776;51.046;6.772;2023-04-24T12:59:58;13.70;99.90
5508;DHT22;2776;51.046;6.772;2023-04-24T13:02:27;13.80;99.90
5508;DHT22;2776;51.046;6.772;2023-04-24T13:04:55;14.00;99.90
5508;DHT22;2776;51.046;6.772;2023-04-24T13:07:22;14.10;99.90
5508;DHT22;2776;51.046;6.772;2023-04-24T13:09:50;14.30;99.90
5508;DHT22;2776;51.046;6.772;2023-04-24T13:12:17;14.20;99.90
5508;DHT22;2776;51.046;6.772;2023-04-24T13:14:45;14.20;99.90
5508;DHT22;2776;51.046;6.772;2023-04-24T13:17:14;14.00;99.90
5508;DHT22;2776;51.046;6.772;2023-04-24T13:19:42;13.80;99.90
5508;DHT22;2776;51.046;6.772;2023-04-24T13:22:10;13.70;99.90
5508;DHT22;2776;51.046;6.772;2023-04-24T13:24:37;14.00;99.90
5508;DHT22;2776;51.046;6.772;2023-04-24T13:27:06;14.10;99.90
5508;DHT22;2776;51.046;6.772;2023-04-24T13:29:33;13.90;99.90
5508;DHT22;2776;51.046;6.772;2023-04-24T13:32:00;13.90;99.90
5508;DHT22;2776;51.046;6.772;2023-04-24T13:34:28;13.60;99.90
5508;DHT22;2776;51.046;6.772;2023-04-24T13:36:57;13.70;99.90
5508;DHT22;2776;51.046;6.772;2023-04-24T13:39:25;13.40;99.90
5508;DHT22;2776;51.046;6.772;2023-04-24T13:41:52;13.10;99.90
5508;DHT22;2776;51.046;6.772;2023-04-24T13:44:20;13.00;99.90
5508;DHT22;2776;51.046;6.772;2023-04-24T13:46:49;13.00;99.90
5508;DHT22;2776;51.046;6.772;2023-04-24T13:49:17;12.80;99.90
5508;DHT22;2776;51.046;6.772;2023-04-24T13:51:46;12.80;99.90
5508;DHT22;2776;51.046;6.772;2023-04-24T13:54:14;12.70;99.90
5508;DHT22;2776;51.046;6.772;2023-04-24T13:56:41;12.60;99.90
5508;DHT22;2776;51.046;6.772;2023-04-24T13:59:08;12.90;99.90
5508;DHT22;2776;51.046;6.772;2023-04-24T14:01:35;13.20;99.90
5508;DHT22;2776;51.046;6.772;2023-04-24T14:04:02;13.40;99.90
5508;DHT22;2776;51.046;6.772;2023-04-24T14:06:29;13.60;99.90
5508;DHT22;2776;51.046;6.772;2023-04-24T14:08:57;13.60;99.90
5508;DHT22;2776;51.046;6.772;2023-04-24T14:11:26;13.90;99.90
5508;DHT22;2776;51.046;6.772;2023-04-24T14:13:53;13.80;99.90
5508;DHT22;2776;51.046;6.772;2023-04-24T14:16:21;13.70;99.90
5508;DHT22;2776;51.046;6.772;2023-04-24T14:18:48;13.50;99.90
5508;DHT22;2776;51.046;6.772;2023-04-24T14:21:15;13.60;99.90
5508;DHT22;2776;51.046;6.772;2023-04-24T14:23:42;13.60;99.90
5508;DHT22;2776;51.046;6.772;2023-04-24T14:26:10;13.40;99.90
5508;DHT22;2776;51.046;6.772;2023-04-24T14:28:37;13.40;99.90
5508;DHT22;2776;51.046;6.772;2023-04-24T14:31:04;13.30;99.90
5508;DHT22;2776;51.046;6.772;2023-04-24T14:33:31;13.30;99.90
5508;DHT22;2776;51.046;6.772;2023-04-24T14:35:58;13.30;99.90
5508;DHT22;2776;51.046;6.772;2023-04-24T14:38:25;13.20;99.90
5508;DHT22;2776;51.046;6.772;2023-04-24T14:40:52;13.30;99.90
5508;DHT22;2776;51.046;6.772;2023-04-24T14:43:20;13.10;99.90
5508;DHT22;2776;51.046;6.772;2023-04-24T14:45:46;13.10;99.90
5508;DHT22;2776;51.046;6.772;2023-04-24T14:48:13;13.10;99.90
5508;DHT22;2776;51.046;6.772;2023-04-24T14:50:42;13.00;99.90
5508;DHT22;2776;51.046;6.772;2023-04-24T14:53:08;13.00;99.90
5508;DHT22;2776;51.046;6.772;2023-04-24T14:55:35;13.00;99.90
5508;DHT22;2776;51.046;6.772;2023-04-24T14:58:02;12.90;99.90
5508;DHT22;2776;51.046;6.772;2023-04-24T15:00:31;13.00;99.90
5508;DHT22;2776;51.046;6.772;2023-04-24T15:03:00;13.00;99.90
5508;DHT22;2776;51.046;6.772;2023-04-24T15:05:27;13.00;99.90
5508;DHT22;2776;51.046;6.772;2023-04-24T15:07:53;12.90;99.90
5508;DHT22;2776;51.046;6.772;2023-04-24T15:10:20;12.80;99.90
5508;DHT22;2776;51.046;6.772;2023-04-24T15:12:48;12.80;99.90
5508;DHT22;2776;51.046;6.772;2023-04-24T15:15:15;12.70;99.90
5508;DHT22;2776;51.046;6.772;2023-04-24T15:17:43;12.70;99.90
5508;DHT22;2776;51.046;6.772;2023-04-24T15:20:10;12.70;99.90
5508;DHT22;2776;51.046;6.772;2023-04-24T15:22:36;12.70;99.90
5508;DHT22;2776;51.046;6.772;2023-04-24T15:25:04;12.70;99.90
5508;DHT22;2776;51.046;6.772;2023-04-24T15:27:40;12.80;99.90
5508;DHT22;2776;51.046;6.772;2023-04-24T15:30:08;12.80;99.90
5508;DHT22;2776;51.046;6.772;2023-04-24T15:32:35;13.00;99.90
5508;DHT22;2776;51.046;6.772;2023-04-24T15:35:03;13.00;99.90
5508;DHT22;2776;51.046;6.772;2023-04-24T15:37:30;13.10;99.90
5508;DHT22;2776;51.046;6.772;2023-04-24T15:39:57;12.90;99.90
5508;DHT22;2776;51.046;6.772;2023-04-24T15:42:25;12.90;99.90
5508;DHT22;2776;51.046;6.772;2023-04-24T15:44:51;12.90;99.90
5508;DHT22;2776;51.046;6.772;2023-04-24T15:47:19;12.90;99.90
5508;DHT22;2776;51.046;6.772;2023-04-24T15:49:45;12.90;99.90
5508;DHT22;2776;51.046;6.772;2023-04-24T15:52:14;13.00;99.90
5508;DHT22;2776;51.046;6.772;2023-04-24T15:54:40;13.00;99.90
5508;DHT22;2776;51.046;6.772;2023-04-24T15:57:07;13.20;99.90
5508;DHT22;2776;51.046;6.772;2023-04-24T15:59:34;13.20;99.90
5508;DHT22;2776;51.046;6.772;2023-04-24T16:02:01;13.20;99.90
5508;DHT22;2776;51.046;6.772;2023-04-24T16:04:29;13.20;99.90
5508;DHT22;2776;51.046;6.772;2023-04-24T16:06:56;13.20;99.90
5508;DHT22;2776;51.046;6.772;2023-04-24T16:09:24;13.30;99.90
5508;DHT22;2776;51.046;6.772;2023-04-24T16:11:50;13.20;99.90